createdAt,value
2023-02-12T00:00:04.240Z,6.61
2023-02-12T00:01:04.963Z,6.61
2023-02-12T00:02:03.964Z,6.48
2023-02-12T00:03:03.927Z,6.54
2023-02-12T00:04:03.980Z,6.48
2023-02-12T00:05:03.907Z,6.56
2023-02-12T00:06:03.901Z,6.56
2023-02-12T00:07:03.898Z,6.53
2023-02-12T00:08:03.881Z,6.58
2023-02-12T00:09:03.862Z,6.63
2023-02-12T00:10:03.883Z,6.53
2023-02-12T00:11:03.850Z,6.54
2023-02-12T00:12:03.833Z,6.51
2023-02-12T00:13:03.838Z,6.59
2023-02-12T00:14:03.818Z,6.72
2023-02-12T00:15:03.822Z,6.53
2023-02-12T00:16:03.886Z,6.50
2023-02-12T00:17:03.785Z,6.36
2023-02-12T00:18:03.777Z,6.54
2023-02-12T00:19:03.758Z,6.63
2023-02-12T00:20:03.779Z,6.46
2023-02-12T00:21:03.746Z,6.46
2023-02-12T00:22:03.731Z,6.44
2023-02-12T00:23:03.724Z,6.26
2023-02-12T00:24:03.693Z,6.29
2023-02-12T00:25:04.714Z,6.28
2023-02-12T00:26:03.689Z,6.28
2023-02-12T00:27:03.678Z,6.26
2023-02-12T00:28:03.752Z,6.26
2023-02-12T00:29:03.650Z,6.18
2023-02-12T00:30:03.661Z,6.21
2023-02-12T00:31:03.762Z,6.21
2023-02-12T00:32:03.628Z,6.14
2023-02-12T00:33:03.616Z,6.16
2023-02-12T00:34:03.594Z,6.18
2023-02-12T00:35:03.604Z,6.21
2023-02-12T00:36:03.577Z,6.26
2023-02-12T00:37:03.574Z,6.21
2023-02-12T00:38:03.564Z,6.19
2023-02-12T00:39:03.558Z,6.21
2023-02-12T00:40:03.567Z,6.14
2023-02-12T00:41:03.534Z,6.18
2023-02-12T00:42:03.525Z,6.22
2023-02-12T00:43:03.508Z,6.25
2023-02-12T00:44:03.512Z,6.16
2023-02-12T00:45:04.425Z,6.21
2023-02-12T00:46:03.493Z,6.18
2023-02-12T00:47:03.462Z,6.21
2023-02-12T00:48:03.487Z,6.25
2023-02-12T00:49:03.439Z,6.21
2023-02-12T00:50:03.457Z,6.26
2023-02-12T00:51:03.412Z,6.16
2023-02-12T00:52:03.405Z,6.19
2023-02-12T00:53:03.394Z,6.11
2023-02-12T00:54:03.396Z,6.13
2023-02-12T00:55:03.399Z,6.11
2023-02-12T00:56:03.374Z,6.13
2023-02-12T00:57:03.349Z,6.14
2023-02-12T00:58:03.348Z,6.18
2023-02-12T00:59:03.337Z,6.14
2023-02-12T01:00:03.356Z,6.06
2023-02-12T01:01:03.319Z,6.00
2023-02-12T01:02:03.314Z,6.06
2023-02-12T01:03:03.287Z,6.06
2023-02-12T01:04:03.294Z,6.07
2023-02-12T01:05:03.362Z,6.03
2023-02-12T01:06:03.293Z,5.96
2023-02-12T01:07:03.260Z,6.06
2023-02-12T01:08:03.243Z,6.13
2023-02-12T01:09:03.222Z,6.03
2023-02-12T01:10:03.233Z,5.93
2023-02-12T01:11:03.210Z,6.04
2023-02-12T01:12:03.199Z,6.07
2023-02-12T01:13:03.184Z,6.04
2023-02-12T01:14:03.170Z,6.04
2023-02-12T01:15:03.244Z,6.11
2023-02-12T01:16:03.210Z,6.11
2023-02-12T01:17:03.139Z,6.09
2023-02-12T01:18:03.131Z,6.14
2023-02-12T01:19:03.123Z,6.14
2023-02-12T01:20:03.133Z,6.11
2023-02-12T01:21:03.100Z,6.04
2023-02-12T01:22:03.095Z,6.06
2023-02-12T01:23:03.079Z,6.09
2023-02-12T01:24:03.075Z,6.03
2023-02-12T01:25:03.091Z,6.18
2023-02-12T01:26:03.046Z,6.04
2023-02-12T01:27:03.038Z,6.00
2023-02-12T01:28:03.070Z,5.98
2023-02-12T01:29:03.036Z,6.11
2023-02-12T01:30:03.045Z,6.06
2023-02-12T01:31:03.081Z,6.06
2023-02-12T01:32:03.152Z,6.04
2023-02-12T01:33:02.978Z,6.16
2023-02-12T01:34:02.966Z,6.21
2023-02-12T01:35:02.977Z,6.22
2023-02-12T01:36:02.942Z,6.19
2023-02-12T01:37:02.935Z,6.18
2023-02-12T01:38:02.950Z,6.14
2023-02-12T01:39:03.122Z,6.13
2023-02-12T01:40:02.928Z,6.19
2023-02-12T01:41:02.896Z,6.21
2023-02-12T01:42:02.872Z,6.30
2023-02-12T01:43:02.874Z,6.28
2023-02-12T01:44:02.864Z,6.30
2023-02-12T01:45:02.892Z,6.36
2023-02-12T01:46:02.857Z,6.19
2023-02-12T01:47:02.824Z,6.21
2023-02-12T01:48:02.826Z,6.36
2023-02-12T01:49:02.807Z,6.35
2023-02-12T01:50:02.840Z,6.43
2023-02-12T01:51:02.800Z,6.30
2023-02-12T01:52:02.779Z,6.30
2023-02-12T01:53:02.769Z,6.33
2023-02-12T01:54:02.759Z,6.38
2023-02-12T01:55:02.765Z,6.38
2023-02-12T01:56:02.731Z,6.36
2023-02-12T01:57:02.724Z,6.43
2023-02-12T01:58:02.719Z,6.38
2023-02-12T01:59:02.708Z,6.47
2023-02-12T02:00:02.729Z,6.46
2023-02-12T02:01:02.678Z,6.44
2023-02-12T02:02:02.704Z,6.53
2023-02-12T02:03:02.710Z,6.48
2023-02-12T02:04:02.647Z,6.50
2023-02-12T02:05:02.694Z,6.54
2023-02-12T02:06:02.629Z,6.56
2023-02-12T02:07:02.623Z,6.61
2023-02-12T02:08:02.611Z,6.62
2023-02-12T02:09:02.606Z,6.51
2023-02-12T02:10:02.619Z,6.59
2023-02-12T02:11:02.577Z,6.54
2023-02-12T02:12:02.565Z,6.68
2023-02-12T02:13:02.563Z,6.66
2023-02-12T02:14:02.545Z,6.63
2023-02-12T02:15:02.595Z,6.66
2023-02-12T02:16:02.549Z,6.66
2023-02-12T02:17:02.513Z,6.72
2023-02-12T02:18:02.523Z,6.62
2023-02-12T02:19:02.493Z,6.56
2023-02-12T02:20:02.500Z,6.51
2023-02-12T02:21:02.465Z,6.46
2023-02-12T02:22:02.500Z,6.58
2023-02-12T02:23:02.449Z,6.56
2023-02-12T02:24:02.435Z,6.53
2023-02-12T02:25:02.450Z,6.61
2023-02-12T02:26:02.417Z,6.51
2023-02-12T02:27:02.434Z,6.38
2023-02-12T02:28:02.432Z,6.53
2023-02-12T02:29:02.382Z,6.50
2023-02-12T02:30:02.403Z,6.47
2023-02-12T02:31:02.459Z,6.43
2023-02-12T02:32:02.381Z,6.51
2023-02-12T02:33:02.348Z,6.46
2023-02-12T02:34:02.340Z,6.48
2023-02-12T02:35:02.359Z,6.44
2023-02-12T02:36:02.331Z,6.46
2023-02-12T02:37:02.324Z,6.40
2023-02-12T02:38:02.291Z,6.50
2023-02-12T02:39:02.281Z,6.29
2023-02-12T02:40:02.269Z,6.36
2023-02-12T02:41:02.258Z,6.38
2023-02-12T02:42:02.267Z,6.43
2023-02-12T02:43:02.237Z,6.46
2023-02-12T02:44:02.234Z,6.46
2023-02-12T02:45:02.230Z,6.44
2023-02-12T02:46:02.209Z,6.46
2023-02-12T02:47:03.230Z,6.43
2023-02-12T02:48:02.191Z,6.43
2023-02-12T02:49:02.205Z,6.43
2023-02-12T02:50:02.197Z,6.32
2023-02-12T02:51:02.162Z,6.30
2023-02-12T02:52:02.160Z,6.33
2023-02-12T02:53:02.143Z,6.28
2023-02-12T02:54:02.129Z,6.33
2023-02-12T02:55:02.142Z,6.32
2023-02-12T02:56:02.113Z,6.28
2023-02-12T02:57:02.109Z,6.30
2023-02-12T02:58:02.117Z,6.41
2023-02-12T02:59:02.083Z,6.33
2023-02-12T03:00:02.079Z,6.35
2023-02-12T03:01:02.254Z,6.30
2023-02-12T03:02:02.050Z,6.33
2023-02-12T03:03:02.147Z,6.30
2023-02-12T03:04:02.030Z,6.30
2023-02-12T03:05:02.024Z,6.25
2023-02-12T03:06:02.032Z,6.25
2023-02-12T03:07:01.992Z,6.28
2023-02-12T03:08:03.003Z,6.30
2023-02-12T03:09:01.984Z,6.32
2023-02-12T03:10:01.980Z,6.32
2023-02-12T03:11:01.976Z,6.32
2023-02-12T03:12:01.945Z,6.35
2023-02-12T03:13:01.949Z,6.26
2023-02-12T03:14:01.937Z,6.33
2023-02-12T03:15:01.938Z,6.28
2023-02-12T03:16:01.986Z,6.41
2023-02-12T03:17:01.901Z,6.33
2023-02-12T03:18:01.895Z,6.26
2023-02-12T03:19:01.893Z,6.21
2023-02-12T03:20:01.867Z,6.33
2023-02-12T03:21:01.881Z,6.26
2023-02-12T03:22:01.874Z,6.29
2023-02-12T03:23:01.842Z,6.29
2023-02-12T03:24:01.849Z,6.18
2023-02-12T03:25:01.824Z,6.26
2023-02-12T03:26:01.836Z,6.29
2023-02-12T03:27:01.803Z,6.29
2023-02-12T03:28:01.880Z,6.35
2023-02-12T03:29:01.778Z,6.29
2023-02-12T03:30:01.776Z,6.38
2023-02-12T03:31:01.846Z,6.30
2023-02-12T03:32:01.755Z,6.33
2023-02-12T03:33:01.765Z,6.28
2023-02-12T03:34:01.740Z,6.32
2023-02-12T03:35:01.725Z,6.33
2023-02-12T03:36:01.749Z,6.28
2023-02-12T03:37:01.699Z,6.35
2023-02-12T03:38:01.716Z,6.25
2023-02-12T03:39:01.685Z,6.30
2023-02-12T03:40:01.678Z,6.38
2023-02-12T03:41:01.683Z,6.33
2023-02-12T03:42:01.657Z,6.41
2023-02-12T03:43:01.652Z,6.41
2023-02-12T03:44:01.678Z,6.36
2023-02-12T03:45:01.643Z,6.41
2023-02-12T03:46:01.666Z,6.32
2023-02-12T03:47:01.602Z,6.38
2023-02-12T03:48:01.594Z,6.33
2023-02-12T03:49:01.578Z,6.26
2023-02-12T03:50:01.591Z,6.40
2023-02-12T03:51:01.611Z,6.35
2023-02-12T03:52:01.553Z,6.32
2023-02-12T03:53:01.545Z,6.32
2023-02-12T03:54:01.531Z,6.26
2023-02-12T03:55:01.525Z,6.28
2023-02-12T03:56:01.532Z,6.40
2023-02-12T03:57:01.491Z,6.22
2023-02-12T03:58:02.485Z,6.30
2023-02-12T03:59:01.479Z,6.26
2023-02-12T04:00:01.491Z,6.36
2023-02-12T04:01:01.495Z,6.30
2023-02-12T04:02:01.634Z,6.30
2023-02-12T04:03:01.440Z,6.46
2023-02-12T04:04:01.471Z,6.44
2023-02-12T04:05:01.414Z,6.36
2023-02-12T04:06:01.447Z,6.21
2023-02-12T04:07:01.395Z,6.28
2023-02-12T04:08:01.376Z,6.35
2023-02-12T04:09:01.369Z,6.33
2023-02-12T04:10:01.361Z,6.33
2023-02-12T04:11:01.368Z,6.36
2023-02-12T04:12:01.337Z,6.36
2023-02-12T04:13:01.335Z,6.40
2023-02-12T04:14:01.322Z,6.36
2023-02-12T04:15:01.326Z,6.32
2023-02-12T04:16:01.322Z,6.35
2023-02-12T04:17:01.423Z,6.29
2023-02-12T04:18:01.277Z,6.36
2023-02-12T04:19:01.268Z,6.44
2023-02-12T04:20:01.252Z,6.47
2023-02-12T04:21:01.266Z,6.33
2023-02-12T04:22:01.237Z,6.29
2023-02-12T04:23:01.220Z,6.36
2023-02-12T04:24:01.208Z,6.43
2023-02-12T04:25:01.208Z,6.33
2023-02-12T04:26:01.210Z,6.43
2023-02-12T04:27:01.178Z,6.38
2023-02-12T04:28:01.195Z,6.35
2023-02-12T04:29:01.159Z,6.29
2023-02-12T04:30:01.201Z,6.25
2023-02-12T04:31:01.290Z,6.29
2023-02-12T04:32:01.134Z,6.29
2023-02-12T04:33:01.115Z,6.44
2023-02-12T04:34:01.112Z,6.28
2023-02-12T04:35:01.104Z,6.32
2023-02-12T04:36:01.111Z,6.35
2023-02-12T04:37:01.093Z,6.40
2023-02-12T04:38:01.067Z,6.46
2023-02-12T04:39:01.056Z,6.40
2023-02-12T04:40:01.082Z,6.47
2023-02-12T04:41:01.061Z,6.35
2023-02-12T04:42:01.023Z,6.38
2023-02-12T04:43:01.033Z,6.38
2023-02-12T04:44:01.015Z,6.36
2023-02-12T04:45:00.989Z,6.35
2023-02-12T04:46:01.067Z,6.35
2023-02-12T04:47:00.975Z,6.38
2023-02-12T04:48:00.972Z,6.38
2023-02-12T04:49:00.963Z,6.35
2023-02-12T04:50:00.948Z,6.40
2023-02-12T04:51:00.952Z,6.36
2023-02-12T04:52:00.930Z,6.36
2023-02-12T04:53:00.906Z,6.30
2023-02-12T04:54:00.909Z,6.28
2023-02-12T04:55:00.894Z,6.30
2023-02-12T04:56:00.901Z,6.35
2023-02-12T04:57:00.881Z,6.32
2023-02-12T04:58:00.868Z,6.29
2023-02-12T04:59:00.857Z,6.36
2023-02-12T05:00:00.868Z,6.43
2023-02-12T05:01:00.872Z,6.33
2023-02-12T05:02:00.824Z,6.33
2023-02-12T05:03:00.818Z,6.25
2023-02-12T05:04:00.809Z,6.36
2023-02-12T05:05:01.821Z,6.33
2023-02-12T05:06:00.818Z,6.32
2023-02-12T05:07:00.771Z,6.30
2023-02-12T05:08:00.759Z,6.28
2023-02-12T05:09:00.752Z,6.30
2023-02-12T05:10:00.804Z,6.26
2023-02-12T05:11:00.749Z,6.14
2023-02-12T05:12:00.714Z,6.11
2023-02-12T05:13:00.753Z,6.35
2023-02-12T05:14:00.765Z,6.22
2023-02-12T05:15:00.796Z,6.16
2023-02-12T05:16:00.798Z,6.26
2023-02-12T05:17:00.662Z,6.25
2023-02-12T05:18:00.654Z,6.29
2023-02-12T05:19:00.641Z,6.21
2023-02-12T05:20:00.659Z,6.19
2023-02-12T05:21:00.662Z,6.25
2023-02-12T05:22:00.613Z,6.28
2023-02-12T05:23:00.605Z,6.25
2023-02-12T05:24:00.586Z,6.25
2023-02-12T05:25:00.579Z,6.26
2023-02-12T05:26:00.578Z,6.22
2023-02-12T05:27:00.584Z,6.18
2023-02-12T05:28:00.585Z,6.25
2023-02-12T05:29:00.548Z,6.30
2023-02-12T05:30:00.554Z,6.19
2023-02-12T05:31:00.578Z,6.36
2023-02-12T05:32:00.660Z,6.35
2023-02-12T05:33:00.490Z,6.16
2023-02-12T05:34:00.483Z,6.29
2023-02-12T05:35:00.502Z,6.25
2023-02-12T05:36:00.466Z,6.22
2023-02-12T05:37:00.474Z,6.30
2023-02-12T05:38:00.442Z,6.26
2023-02-12T05:39:00.428Z,6.16
2023-02-12T05:40:00.427Z,6.29
2023-02-12T05:41:00.409Z,6.16
2023-02-12T05:42:00.426Z,6.07
2023-02-12T05:43:00.381Z,6.03
2023-02-12T05:44:00.377Z,6.06
2023-02-12T05:45:00.364Z,6.04
2023-02-12T05:46:00.406Z,6.19
2023-02-12T05:47:00.363Z,6.09
2023-02-12T05:48:00.328Z,6.07
2023-02-12T05:49:00.328Z,6.16
2023-02-12T05:50:00.306Z,6.19
2023-02-12T05:51:00.295Z,6.01
2023-02-12T05:52:00.310Z,6.07
2023-02-12T05:53:01.281Z,6.04
2023-02-12T05:54:00.310Z,5.98
2023-02-12T05:55:00.250Z,5.96
2023-02-12T05:56:00.257Z,6.00
2023-02-12T05:57:00.255Z,6.00
2023-02-12T05:58:00.221Z,6.03
2023-02-12T05:59:00.211Z,5.98
2023-02-12T06:00:00.201Z,5.92
2023-02-12T06:01:00.188Z,5.95
2023-02-12T06:02:00.196Z,5.82
2023-02-12T06:03:00.294Z,5.92
2023-02-12T06:04:00.223Z,5.91
2023-02-12T06:05:00.158Z,5.95
2023-02-12T06:06:00.147Z,5.81
2023-02-12T06:07:00.140Z,6.00
2023-02-12T06:08:00.119Z,5.85
2023-02-12T06:09:00.115Z,5.89
2023-02-12T06:10:00.105Z,5.92
2023-02-12T06:11:00.095Z,5.88
2023-02-12T06:12:00.123Z,5.95
2023-02-12T06:13:00.103Z,5.82
2023-02-12T06:14:00.056Z,6.03
2023-02-12T06:15:00.039Z,5.93
2023-02-12T06:16:00.369Z,5.89
2023-02-12T06:17:00.047Z,5.91
2023-02-12T06:18:00.020Z,5.92
2023-02-12T06:18:59.999Z,5.96
2023-02-12T06:19:59.987Z,6.03
2023-02-12T06:20:59.978Z,6.03
2023-02-12T06:22:00.006Z,6.06
2023-02-12T06:22:59.952Z,6.11
2023-02-12T06:23:59.946Z,6.03
2023-02-12T06:24:59.940Z,6.00
2023-02-12T06:25:59.924Z,6.01
2023-02-12T06:26:59.948Z,5.95
2023-02-12T06:27:59.948Z,5.91
2023-02-12T06:28:59.890Z,5.91
2023-02-12T06:29:59.884Z,5.85
2023-02-12T06:31:00.042Z,6.03
2023-02-12T06:32:00.034Z,6.01
2023-02-12T06:32:59.844Z,6.09
2023-02-12T06:33:59.854Z,6.06
2023-02-12T06:34:59.829Z,6.13
2023-02-12T06:35:59.821Z,6.04
2023-02-12T06:36:59.852Z,6.07
2023-02-12T06:37:59.795Z,6.03
2023-02-12T06:38:59.800Z,6.04
2023-02-12T06:39:59.786Z,6.06
2023-02-12T06:40:59.794Z,6.00
2023-02-12T06:41:59.799Z,6.07
2023-02-12T06:42:59.745Z,6.06
2023-02-12T06:43:59.734Z,6.14
2023-02-12T06:44:59.737Z,6.09
2023-02-12T06:45:59.714Z,6.11
2023-02-12T06:46:59.820Z,6.19
2023-02-12T06:48:00.690Z,6.16
2023-02-12T06:48:59.687Z,6.14
2023-02-12T06:49:59.668Z,6.07
2023-02-12T06:50:59.658Z,6.03
2023-02-12T06:52:02.204Z,6.10
2023-02-12T06:52:59.642Z,6.10
2023-02-12T06:53:59.624Z,6.06
2023-02-12T06:54:59.615Z,6.14
2023-02-12T06:55:59.600Z,6.07
2023-02-12T06:56:59.633Z,6.13
2023-02-12T06:57:59.582Z,6.09
2023-02-12T06:58:59.568Z,6.14
2023-02-12T06:59:59.558Z,6.14
2023-02-12T07:00:59.619Z,6.19
2023-02-12T07:01:59.560Z,6.18
2023-02-12T07:02:59.532Z,6.28
2023-02-12T07:03:59.599Z,6.29
2023-02-12T07:04:59.504Z,6.26
2023-02-12T07:05:59.514Z,6.25
2023-02-12T07:06:59.480Z,6.28
2023-02-12T07:08:00.497Z,6.30
2023-02-12T07:08:59.458Z,6.26
2023-02-12T07:09:59.451Z,6.21
2023-02-12T07:10:59.441Z,6.25
2023-02-12T07:11:59.427Z,6.25
2023-02-12T07:12:59.439Z,6.38
2023-02-12T07:13:59.413Z,6.33
2023-02-12T07:14:59.407Z,6.22
2023-02-12T07:15:59.496Z,6.25
2023-02-12T07:16:59.388Z,6.26
2023-02-12T07:17:59.389Z,6.29
2023-02-12T07:18:59.353Z,6.36
2023-02-12T07:19:59.356Z,6.33
2023-02-12T07:20:59.333Z,6.35
2023-02-12T07:21:59.324Z,6.25
2023-02-12T07:22:59.346Z,6.29
2023-02-12T07:23:59.302Z,6.29
2023-02-12T07:24:59.293Z,6.26
2023-02-12T07:25:59.284Z,6.25
2023-02-12T07:26:59.270Z,6.38
2023-02-12T07:27:59.325Z,6.40
2023-02-12T07:28:59.263Z,6.36
2023-02-12T07:29:59.238Z,6.38
2023-02-12T07:30:59.252Z,6.46
2023-02-12T07:31:59.284Z,6.44
2023-02-12T07:32:59.219Z,6.51
2023-02-12T07:33:59.202Z,6.40
2023-02-12T07:34:59.209Z,6.44
2023-02-12T07:35:59.178Z,6.36
2023-02-12T07:36:59.165Z,6.41
2023-02-12T07:37:59.189Z,6.50
2023-02-12T07:38:59.145Z,6.50
2023-02-12T07:39:59.136Z,6.51
2023-02-12T07:40:59.137Z,6.51
2023-02-12T07:41:59.116Z,6.46
2023-02-12T07:42:59.142Z,6.47
2023-02-12T07:43:59.088Z,6.44
2023-02-12T07:44:59.080Z,6.44
2023-02-12T07:45:59.297Z,6.44
2023-02-12T07:46:59.084Z,6.41
2023-02-12T07:47:59.072Z,6.47
2023-02-12T07:48:59.047Z,6.48
2023-02-12T07:49:59.060Z,6.54
2023-02-12T07:50:59.067Z,6.48
2023-02-12T07:51:59.016Z,6.50
2023-02-12T07:52:59.004Z,6.56
2023-02-12T07:53:58.988Z,6.51
2023-02-12T07:54:58.986Z,6.54
2023-02-12T07:55:58.984Z,6.50
2023-02-12T07:56:58.962Z,6.58
2023-02-12T07:57:58.960Z,6.59
2023-02-12T07:58:58.940Z,6.76
2023-02-12T08:01:32.342Z,6.68
2023-02-12T08:02:32.382Z,6.65
2023-02-12T08:03:32.358Z,6.62
2023-02-12T08:04:32.388Z,6.73
2023-02-12T08:05:32.322Z,6.68
2023-02-12T08:06:32.317Z,6.71
2023-02-12T08:07:32.300Z,6.84
2023-02-12T08:08:32.308Z,6.91
2023-02-12T08:09:32.279Z,6.94
2023-02-12T08:10:32.598Z,6.94
2023-02-12T08:11:32.260Z,7.01
2023-02-12T08:12:32.252Z,6.99
2023-02-12T08:13:32.247Z,6.98
2023-02-12T08:14:32.225Z,7.05
2023-02-12T08:15:32.207Z,7.02
2023-02-12T08:16:32.229Z,7.22
2023-02-12T08:17:32.184Z,7.12
2023-02-12T08:18:32.211Z,7.17
2023-02-12T08:19:32.161Z,7.17
2023-02-12T08:20:32.158Z,7.27
2023-02-12T08:21:32.171Z,7.29
2023-02-12T08:22:32.158Z,7.26
2023-02-12T08:23:32.160Z,7.37
2023-02-12T08:24:32.118Z,7.34
2023-02-12T08:25:32.098Z,7.29
2023-02-12T08:26:33.252Z,7.35
2023-02-12T08:27:33.219Z,7.29
2023-02-12T08:28:33.273Z,7.42
2023-02-12T08:29:33.216Z,7.50
2023-02-12T08:30:33.179Z,7.44
2023-02-12T08:31:33.212Z,7.49
2023-02-12T08:32:33.176Z,7.42
2023-02-12T08:33:33.202Z,7.59
2023-02-12T08:34:33.156Z,7.56
2023-02-12T08:35:33.144Z,7.53
2023-02-12T08:36:34.072Z,7.56
2023-02-12T08:37:33.123Z,7.60
2023-02-12T08:38:33.126Z,7.69
2023-02-12T08:39:33.095Z,7.58
2023-02-12T08:40:33.134Z,7.72
2023-02-12T08:41:33.141Z,7.63
2023-02-12T08:42:33.075Z,7.62
2023-02-12T08:43:33.049Z,7.71
2023-02-12T08:44:33.044Z,7.77
2023-02-12T08:45:33.032Z,7.72
2023-02-12T08:46:33.111Z,7.79
2023-02-12T08:47:33.021Z,7.77
2023-02-12T08:48:33.021Z,7.75
2023-02-12T08:49:33.007Z,7.79
2023-02-12T08:50:32.997Z,7.78
2023-02-12T08:51:32.979Z,7.78
2023-02-12T08:52:33.963Z,7.81
2023-02-12T08:53:32.969Z,7.78
2023-02-12T08:54:32.944Z,7.82
2023-02-12T08:56:04.821Z,7.72
2023-02-12T08:56:32.914Z,7.74
2023-02-12T08:57:32.909Z,7.74
2023-02-12T08:58:33.006Z,7.75
2023-02-12T08:59:32.909Z,7.67
2023-02-12T09:00:32.915Z,7.63
2023-02-12T09:01:32.995Z,7.81
2023-02-12T09:02:32.896Z,7.69
2023-02-12T09:03:32.875Z,7.84
2023-02-12T09:04:32.837Z,7.82
2023-02-12T09:05:32.844Z,7.75
2023-02-12T09:06:32.834Z,7.81
2023-02-12T09:07:32.816Z,7.85
2023-02-12T09:08:32.818Z,7.90
2023-02-12T09:09:32.797Z,7.93
2023-02-12T09:10:32.776Z,8.07
2023-02-12T09:11:32.803Z,7.94
2023-02-12T09:12:32.767Z,8.02
2023-02-12T09:13:32.764Z,7.96
2023-02-12T09:14:32.750Z,8.00
2023-02-12T09:15:32.749Z,8.15
2023-02-12T09:16:32.759Z,8.10
2023-02-12T09:17:32.706Z,8.15
2023-02-12T09:18:32.762Z,8.11
2023-02-12T09:19:32.688Z,8.22
2023-02-12T09:20:32.679Z,8.28
2023-02-12T09:21:32.678Z,8.39
2023-02-12T09:22:32.656Z,8.32
2023-02-12T09:23:32.636Z,8.32
2023-02-12T09:24:32.637Z,8.45
2023-02-12T09:25:32.623Z,8.45
2023-02-12T09:26:32.645Z,8.51
2023-02-12T09:27:32.614Z,8.55
2023-02-12T09:28:32.687Z,8.57
2023-02-12T09:29:32.605Z,8.57
2023-02-12T09:30:32.589Z,8.68
2023-02-12T09:31:32.795Z,8.69
2023-02-12T09:32:32.559Z,8.66
2023-02-12T09:33:32.569Z,8.63
2023-02-12T09:34:32.542Z,8.86
2023-02-12T09:35:32.531Z,8.78
2023-02-12T09:36:32.522Z,8.73
2023-02-12T09:37:32.562Z,8.87
2023-02-12T09:38:33.519Z,8.88
2023-02-12T09:39:32.497Z,8.97
2023-02-12T09:40:32.488Z,8.97
2023-02-12T09:41:32.479Z,8.96
2023-02-12T09:42:32.529Z,8.88
2023-02-12T09:43:32.473Z,8.78
2023-02-12T09:44:32.458Z,8.84
2023-02-12T09:45:32.432Z,8.90
2023-02-12T09:46:32.476Z,8.93
2023-02-12T09:47:32.404Z,9.02
2023-02-12T09:48:32.439Z,8.97
2023-02-12T09:49:32.391Z,9.09
2023-02-12T09:50:32.383Z,9.12
2023-02-12T09:51:32.383Z,9.18
2023-02-12T09:52:32.356Z,9.15
2023-02-12T09:53:32.378Z,9.27
2023-02-12T09:54:32.340Z,9.30
2023-02-12T09:55:32.335Z,9.28
2023-02-12T09:56:32.319Z,9.28
2023-02-12T09:57:32.314Z,9.25
2023-02-12T09:58:32.326Z,9.28
2023-02-12T09:59:32.317Z,9.32
2023-02-12T10:00:32.298Z,9.21
2023-02-12T10:01:32.296Z,9.16
2023-02-12T10:02:32.266Z,9.28
2023-02-12T10:03:32.443Z,9.15
2023-02-12T10:04:32.299Z,9.13
2023-02-12T10:05:32.244Z,9.16
2023-02-12T10:06:32.232Z,9.12
2023-02-12T10:07:32.276Z,9.15
2023-02-12T10:08:33.308Z,9.21
2023-02-12T10:09:32.192Z,9.13
2023-02-12T10:10:32.206Z,9.10
2023-02-12T10:11:32.306Z,9.15
2023-02-12T10:12:32.192Z,9.12
2023-02-12T10:13:32.171Z,9.20
2023-02-12T10:14:32.205Z,9.12
2023-02-12T10:15:32.170Z,9.01
2023-02-12T10:16:32.170Z,9.18
2023-02-12T10:17:32.113Z,9.04
2023-02-12T10:18:32.115Z,9.01
2023-02-12T10:19:32.117Z,9.02
2023-02-12T10:20:32.096Z,9.05
2023-02-12T10:21:32.074Z,9.06
2023-02-12T10:22:32.069Z,9.13
2023-02-12T10:23:32.071Z,9.21
2023-02-12T10:24:32.044Z,9.12
2023-02-12T10:25:32.051Z,9.06
2023-02-12T10:26:32.032Z,9.04
2023-02-12T10:27:32.032Z,9.12
2023-02-12T10:28:32.108Z,9.02
2023-02-12T10:29:32.035Z,8.96
2023-02-12T10:30:31.993Z,8.87
2023-02-12T10:31:32.143Z,8.90
2023-02-12T10:32:31.968Z,8.90
2023-02-12T10:33:31.954Z,8.88
2023-02-12T10:34:31.984Z,8.93
2023-02-12T10:35:31.937Z,8.86
2023-02-12T10:36:31.925Z,8.88
2023-02-12T10:37:31.960Z,8.97
2023-02-12T10:38:31.909Z,8.88
2023-02-12T10:39:31.927Z,8.90
2023-02-12T10:40:31.878Z,8.90
2023-02-12T10:41:31.876Z,8.88
2023-02-12T10:42:31.859Z,8.90
2023-02-12T10:43:31.853Z,8.83
2023-02-12T10:44:31.863Z,8.83
2023-02-12T10:45:31.852Z,8.86
2023-02-12T10:46:31.895Z,8.86
2023-02-12T10:47:31.811Z,8.79
2023-02-12T10:48:31.802Z,8.90
2023-02-12T10:49:31.835Z,8.79
2023-02-12T10:50:31.793Z,8.78
2023-02-12T10:51:31.804Z,8.81
2023-02-12T10:52:31.754Z,8.79
2023-02-12T10:53:31.771Z,8.86
2023-02-12T10:54:31.734Z,8.81
2023-02-12T10:55:31.870Z,8.79
2023-02-12T10:56:32.146Z,8.81
2023-02-12T10:57:31.723Z,8.75
2023-02-12T10:58:31.718Z,8.86
2023-02-12T10:59:31.704Z,8.78
2023-02-12T11:00:31.723Z,8.76
2023-02-12T11:01:31.754Z,8.84
2023-02-12T11:02:31.739Z,8.72
2023-02-12T11:03:31.690Z,8.71
2023-02-12T11:04:31.784Z,8.71
2023-02-12T11:05:31.716Z,8.76
2023-02-12T11:06:31.634Z,8.79
2023-02-12T11:07:31.644Z,8.76
2023-02-12T11:08:31.817Z,8.75
2023-02-12T11:09:31.609Z,8.72
2023-02-12T11:10:31.608Z,8.72
2023-02-12T11:11:31.604Z,8.87
2023-02-12T11:12:31.571Z,8.79
2023-02-12T11:13:31.583Z,8.81
2023-02-12T11:14:31.561Z,8.88
2023-02-12T11:15:31.534Z,8.93
2023-02-12T11:16:31.589Z,8.93
2023-02-12T11:17:31.494Z,8.86
2023-02-12T11:18:32.532Z,8.87
2023-02-12T11:19:31.505Z,8.87
2023-02-12T11:20:31.469Z,8.90
2023-02-12T11:21:31.459Z,8.93
2023-02-12T11:22:31.471Z,8.88
2023-02-12T11:23:31.450Z,8.91
2023-02-12T11:24:31.468Z,8.96
2023-02-12T11:25:31.455Z,8.90
2023-02-12T11:26:31.464Z,8.96
2023-02-12T11:27:31.407Z,9.01
2023-02-12T11:28:31.444Z,8.90
2023-02-12T11:29:31.421Z,8.93
2023-02-12T11:30:31.402Z,8.91
2023-02-12T11:31:31.428Z,8.91
2023-02-12T11:32:31.378Z,8.86
2023-02-12T11:33:31.378Z,8.90
2023-02-12T11:34:31.378Z,8.96
2023-02-12T11:35:31.335Z,9.01
2023-02-12T11:36:31.316Z,8.99
2023-02-12T11:37:31.312Z,8.99
2023-02-12T11:38:31.317Z,8.90
2023-02-12T11:39:31.310Z,9.09
2023-02-12T11:40:31.283Z,8.91
2023-02-12T11:41:31.267Z,9.05
2023-02-12T11:42:31.265Z,8.87
2023-02-12T11:43:31.250Z,8.96
2023-02-12T11:44:31.272Z,8.96
2023-02-12T11:45:31.230Z,9.01
2023-02-12T11:46:31.253Z,8.97
2023-02-12T11:47:31.242Z,9.02
2023-02-12T11:48:31.208Z,9.04
2023-02-12T11:49:31.224Z,9.10
2023-02-12T11:50:31.204Z,9.02
2023-02-12T11:51:31.181Z,9.12
2023-02-12T11:52:31.171Z,9.21
2023-02-12T11:53:31.207Z,9.12
2023-02-12T11:54:31.179Z,9.13
2023-02-12T11:55:33.550Z,9.10
2023-02-12T11:56:32.132Z,9.06
2023-02-12T11:57:31.117Z,9.13
2023-02-12T11:58:31.096Z,9.10
2023-02-12T11:59:31.118Z,9.21
2023-02-12T12:00:31.134Z,9.06
2023-02-12T12:01:31.074Z,9.15
2023-02-12T12:02:31.075Z,9.13
2023-02-12T12:03:31.050Z,9.18
2023-02-12T12:04:31.083Z,9.24
2023-02-12T12:05:31.030Z,9.27
2023-02-12T12:06:31.030Z,9.15
2023-02-12T12:07:31.037Z,9.16
2023-02-12T12:08:30.996Z,9.16
2023-02-12T12:09:31.012Z,9.16
2023-02-12T12:10:31.582Z,9.20
2023-02-12T12:11:30.976Z,9.25
2023-02-12T12:12:30.967Z,9.16
2023-02-12T12:13:30.976Z,9.18
2023-02-12T12:14:30.961Z,9.20
2023-02-12T12:15:30.947Z,9.21
2023-02-12T12:16:31.056Z,9.16
2023-02-12T12:17:30.913Z,9.18
2023-02-12T12:18:30.925Z,9.16
2023-02-12T12:19:30.916Z,9.24
2023-02-12T12:20:30.912Z,9.23
2023-02-12T12:21:30.884Z,9.28
2023-02-12T12:22:30.865Z,9.30
2023-02-12T12:23:30.866Z,9.32
2023-02-12T12:24:30.868Z,9.28
2023-02-12T12:25:30.857Z,9.28
2023-02-12T12:26:30.834Z,9.16
2023-02-12T12:27:30.810Z,9.23
2023-02-12T12:28:30.831Z,9.21
2023-02-12T12:29:30.795Z,9.24
2023-02-12T12:30:30.932Z,9.21
2023-02-12T12:31:30.828Z,9.25
2023-02-12T12:32:30.778Z,9.24
2023-02-12T12:33:30.753Z,9.30
2023-02-12T12:34:30.763Z,9.25
2023-02-12T12:35:30.737Z,9.28
2023-02-12T12:36:30.741Z,9.31
2023-02-12T12:37:30.737Z,9.25
2023-02-12T12:38:30.713Z,9.25
2023-02-12T12:39:30.732Z,9.38
2023-02-12T12:40:30.710Z,9.30
2023-02-12T12:41:30.674Z,9.30
2023-02-12T12:42:30.683Z,9.18
2023-02-12T12:43:30.651Z,9.24
2023-02-12T12:44:30.651Z,9.27
2023-02-12T12:45:30.771Z,9.25
2023-02-12T12:46:30.625Z,9.25
2023-02-12T12:47:30.658Z,9.23
2023-02-12T12:48:30.608Z,9.20
2023-02-12T12:49:31.610Z,9.28
2023-02-12T12:50:30.610Z,9.28
2023-02-12T12:51:30.573Z,9.21
2023-02-12T12:52:30.612Z,9.27
2023-02-12T12:53:30.553Z,9.30
2023-02-12T12:54:30.598Z,9.23
2023-02-12T12:55:30.540Z,9.27
2023-02-12T12:56:30.544Z,9.25
2023-02-12T12:57:30.515Z,9.30
2023-02-12T12:58:30.530Z,9.27
2023-02-12T12:59:30.518Z,9.38
2023-02-12T13:00:30.488Z,9.30
2023-02-12T13:01:30.542Z,9.35
2023-02-12T13:02:30.487Z,9.35
2023-02-12T13:03:30.513Z,9.40
2023-02-12T13:04:30.498Z,9.32
2023-02-12T13:05:30.465Z,9.39
2023-02-12T13:06:30.436Z,9.30
2023-02-12T13:07:30.424Z,9.38
2023-02-12T13:08:30.414Z,9.39
2023-02-12T13:09:30.406Z,9.35
2023-02-12T13:10:30.429Z,9.30
2023-02-12T13:11:30.390Z,9.30
2023-02-12T13:12:30.374Z,9.28
2023-02-12T13:13:30.366Z,9.28
2023-02-12T13:14:30.360Z,9.34
2023-02-12T13:15:30.357Z,9.30
2023-02-12T13:16:30.357Z,9.28
2023-02-12T13:17:30.316Z,9.35
2023-02-12T13:18:30.309Z,9.34
2023-02-12T13:19:30.311Z,9.39